createdAt,value
2019-02-12T00:00:55.935Z,12.40
2019-02-12T00:03:27.766Z,16.60
2019-02-12T00:05:58.730Z,13.57
2019-02-12T00:08:29.665Z,21.23
2019-02-12T00:11:02.392Z,17.70
2019-02-12T00:13:32.905Z,14.60
2019-02-12T00:16:03.342Z,12.87
2019-02-12T00:18:36.001Z,23.33
2019-02-12T00:21:09.203Z,18.40
2019-02-12T00:23:40.668Z,16.87
2019-02-12T00:26:13.660Z,21.27
2019-02-12T00:28:44.434Z,19.63
2019-02-12T00:31:15.026Z,16.17
2019-02-12T00:33:46.274Z,19.60
2019-02-12T00:36:20.113Z,20.83
2019-02-12T00:38:50.619Z,19.13
2019-02-12T00:41:22.307Z,15.20
2019-02-12T00:43:53.402Z,18.77
2019-02-12T00:46:24.123Z,18.00
2019-02-12T00:48:55.448Z,15.20
2019-02-12T00:51:25.960Z,25.87
2019-02-12T00:53:56.647Z,17.93
2019-02-12T00:56:28.866Z,26.73
2019-02-12T00:58:59.591Z,17.50
2019-02-12T01:01:30.759Z,20.37
2019-02-12T01:04:01.960Z,20.93
2019-02-12T01:06:32.431Z,22.17
2019-02-12T01:09:04.786Z,16.77
2019-02-12T01:11:35.947Z,21.43
2019-02-12T01:14:06.808Z,17.20
2019-02-12T01:16:50.580Z,18.13
2019-02-12T01:19:22.705Z,14.83
2019-02-12T01:21:53.761Z,21.47
2019-02-12T01:24:24.489Z,16.97
2019-02-12T01:26:55.106Z,21.43
2019-02-12T01:29:27.335Z,24.27
2019-02-12T01:31:58.126Z,27.17
2019-02-12T01:34:30.047Z,19.67
2019-02-12T01:37:01.268Z,18.47
2019-02-12T01:39:31.959Z,24.73
2019-02-12T01:42:02.883Z,18.40
2019-02-12T01:44:33.450Z,17.40
2019-02-12T01:47:04.457Z,23.67
2019-02-12T01:49:35.142Z,19.63
2019-02-12T01:52:05.798Z,15.80
2019-02-12T01:54:36.566Z,21.90
2019-02-12T01:57:06.971Z,14.10
2019-02-12T01:59:38.852Z,15.83
2019-02-12T02:02:09.558Z,19.97
2019-02-12T02:04:40.029Z,18.23
2019-02-12T02:07:10.652Z,17.27
2019-02-12T02:09:42.113Z,18.40
2019-02-12T02:12:13.296Z,26.30
2019-02-12T02:14:44.516Z,24.93
2019-02-12T02:17:15.881Z,25.33
2019-02-12T02:19:46.762Z,20.37
2019-02-12T02:22:18.617Z,17.23
2019-02-12T02:24:50.138Z,24.40
2019-02-12T02:27:23.499Z,18.73
2019-02-12T02:29:54.707Z,18.80
2019-02-12T02:32:26.729Z,19.03
2019-02-12T02:34:57.540Z,21.93
2019-02-12T02:37:28.209Z,24.13
2019-02-12T02:39:58.753Z,18.77
2019-02-12T02:42:29.478Z,23.27
2019-02-12T02:45:00.492Z,24.07
2019-02-12T02:47:32.657Z,21.03
2019-02-12T02:50:05.659Z,21.70
2019-02-12T02:52:37.669Z,26.00
2019-02-12T02:55:08.747Z,23.33
2019-02-12T02:57:39.561Z,24.10
2019-02-12T03:00:11.075Z,23.60
2019-02-12T03:02:41.915Z,31.20
2019-02-12T03:05:12.991Z,19.87
2019-02-12T03:07:43.655Z,23.90
2019-02-12T03:10:16.198Z,23.63
2019-02-12T03:12:46.864Z,21.40
2019-02-12T03:15:17.911Z,21.50
2019-02-12T03:17:50.120Z,23.83
2019-02-12T03:20:20.770Z,23.07
2019-02-12T03:22:52.325Z,28.90
2019-02-12T03:25:23.498Z,31.30
2019-02-12T03:27:56.124Z,21.17
2019-02-12T03:30:27.442Z,24.17
2019-02-12T03:32:58.296Z,21.47
2019-02-12T03:35:29.206Z,24.03
2019-02-12T03:37:59.929Z,18.13
2019-02-12T03:40:30.446Z,23.23
2019-02-12T03:43:01.331Z,25.70
2019-02-12T03:45:33.039Z,22.07
2019-02-12T03:48:04.918Z,28.20
2019-02-12T03:50:35.571Z,23.70
2019-02-12T03:53:06.771Z,21.00
2019-02-12T03:55:37.282Z,21.17
2019-02-12T03:58:08.274Z,21.50
2019-02-12T04:00:40.608Z,21.53
2019-02-12T04:03:10.996Z,22.97
2019-02-12T04:05:41.954Z,25.70
2019-02-12T04:08:12.729Z,27.67
2019-02-12T04:10:45.570Z,28.17
2019-02-12T04:13:16.237Z,23.13
2019-02-12T04:15:48.258Z,24.27
2019-02-12T04:18:18.872Z,25.90
2019-02-12T04:20:51.185Z,25.43
2019-02-12T04:23:21.973Z,24.37
2019-02-12T04:25:52.802Z,27.70
2019-02-12T04:28:25.083Z,30.17
2019-02-12T04:30:56.786Z,25.17
2019-02-12T04:33:27.609Z,25.73
2019-02-12T04:35:58.186Z,29.50
2019-02-12T04:38:28.931Z,31.20
2019-02-12T04:41:00.043Z,24.33
2019-02-12T04:43:32.231Z,21.97
2019-02-12T04:46:04.157Z,18.77
2019-02-12T04:48:35.088Z,28.63
2019-02-12T04:51:06.164Z,24.47
2019-02-12T04:53:37.031Z,21.10
2019-02-12T04:56:07.618Z,21.23
2019-02-12T04:58:38.916Z,21.70
2019-02-12T05:01:10.889Z,27.00
2019-02-12T05:03:41.484Z,27.53
2019-02-12T05:06:12.134Z,30.70
2019-02-12T05:09:13.819Z,28.03
2019-02-12T05:11:47.299Z,29.10
2019-02-12T05:14:17.700Z,21.40
2019-02-12T05:16:48.413Z,18.77
2019-02-12T05:19:18.946Z,24.40
2019-02-12T05:21:50.177Z,29.63
2019-02-12T05:24:21.393Z,23.77
2019-02-12T05:26:57.462Z,25.87
2019-02-12T05:29:29.838Z,34.70
2019-02-12T05:32:00.396Z,44.43
2019-02-12T05:34:31.603Z,42.33
2019-02-12T05:37:02.895Z,41.07
2019-02-12T05:39:33.553Z,40.23
2019-02-12T05:42:04.867Z,45.57
2019-02-12T05:44:36.126Z,47.87
2019-02-12T05:47:08.096Z,41.23
2019-02-12T05:49:41.531Z,44.67
2019-02-12T05:52:12.331Z,41.03
2019-02-12T05:54:43.177Z,45.50
2019-02-12T05:57:13.929Z,43.37
2019-02-12T05:59:46.985Z,44.77
2019-02-12T06:02:17.255Z,46.30
2019-02-12T06:04:48.310Z,53.27
2019-02-12T06:07:19.110Z,54.00
2019-02-12T06:09:50.326Z,48.27
2019-02-12T06:12:21.410Z,58.37
2019-02-12T06:14:53.734Z,52.37
2019-02-12T06:17:27.784Z,54.93
2019-02-12T06:19:59.588Z,62.20
2019-02-12T06:22:30.116Z,51.70
2019-02-12T06:25:01.764Z,50.63
2019-02-12T06:27:33.269Z,49.27
2019-02-12T06:30:04.566Z,47.37
2019-02-12T06:32:35.244Z,45.40
2019-02-12T06:35:05.733Z,40.67
2019-02-12T06:37:38.214Z,44.57
2019-02-12T06:40:09.679Z,39.20
2019-02-12T06:42:41.567Z,41.53
2019-02-12T06:45:12.469Z,34.07
2019-02-12T06:47:44.608Z,36.20
2019-02-12T06:50:15.863Z,37.67
2019-02-12T06:52:46.373Z,30.10
2019-02-12T06:55:17.607Z,33.10
2019-02-12T06:57:48.469Z,29.03
2019-02-12T07:00:18.998Z,24.93
2019-02-12T07:03:16.906Z,26.03
2019-02-12T07:06:00.337Z,26.10
2019-02-12T07:08:53.402Z,27.03
2019-02-12T07:11:44.189Z,26.07
2019-02-12T07:14:38.984Z,30.20
2019-02-12T07:17:43.576Z,22.17
2019-02-12T07:20:50.288Z,20.77
2019-02-12T07:24:20.120Z,17.20
2019-02-12T07:27:19.944Z,15.17
2019-02-12T07:30:37.173Z,11.10
2019-02-12T07:33:47.840Z,11.30
2019-02-12T07:36:51.974Z,10.23
2019-02-12T07:40:15.317Z,9.00
2019-02-12T07:43:18.692Z,8.77
2019-02-12T07:46:42.776Z,7.83
2019-02-12T07:49:56.857Z,9.07
2019-02-12T07:52:52.800Z,9.07
2019-02-12T07:56:01.633Z,8.20
2019-02-12T07:59:09.086Z,8.80
2019-02-12T08:02:07.909Z,8.30
2019-02-12T08:05:15.086Z,8.60
2019-02-12T08:08:32.316Z,11.90
2019-02-12T08:11:42.368Z,10.50
2019-02-12T08:14:48.854Z,10.40
2019-02-12T08:17:49.043Z,8.70
2019-02-12T08:21:10.774Z,6.73
2019-02-12T08:24:17.666Z,6.30
2019-02-12T08:27:26.359Z,7.00
2019-02-12T08:30:24.614Z,5.77
2019-02-12T08:33:27.553Z,5.40
2019-02-12T08:36:24.698Z,7.93
2019-02-12T08:39:38.667Z,5.10
2019-02-12T08:43:01.202Z,5.07
2019-02-12T08:46:15.654Z,6.13
2019-02-12T08:49:13.605Z,5.67
2019-02-12T08:52:14.759Z,8.27
2019-02-12T08:55:21.953Z,4.17
2019-02-12T08:58:38.668Z,5.00
2019-02-12T09:01:49.769Z,4.37
2019-02-12T09:04:48.947Z,3.50
2019-02-12T09:07:46.724Z,3.50
2019-02-12T09:10:39.033Z,4.47
2019-02-12T09:13:47.375Z,4.70
2019-02-12T09:16:41.658Z,3.63
2019-02-12T09:19:39.885Z,3.50
2019-02-12T09:22:50.611Z,3.60
2019-02-12T09:25:51.936Z,2.93
2019-02-12T09:28:41.266Z,3.30
2019-02-12T09:31:52.216Z,3.30
2019-02-12T09:34:51.250Z,3.77
2019-02-12T09:37:50.270Z,3.60
2019-02-12T09:40:55.552Z,4.17
2019-02-12T09:44:14.838Z,3.97
2019-02-12T09:47:13.034Z,4.73
2019-02-12T09:50:16.316Z,3.67
2019-02-12T09:53:15.269Z,3.43
2019-02-12T09:56:15.849Z,3.90
2019-02-12T09:59:17.209Z,4.00
2019-02-12T10:02:15.671Z,4.53
2019-02-12T10:05:38.733Z,4.93
2019-02-12T10:08:35.712Z,5.37
2019-02-12T10:11:28.470Z,4.13
2019-02-12T10:14:24.692Z,4.30
2019-02-12T10:17:31.198Z,4.63
2019-02-12T10:20:20.855Z,5.50
2019-02-12T10:23:33.878Z,4.93
2019-02-12T10:26:09.054Z,5.30
2019-02-12T10:29:20.700Z,6.37
2019-02-12T10:31:49.893Z,6.23
2019-02-12T10:34:20.316Z,6.03
2019-02-12T10:36:51.336Z,7.70
2019-02-12T10:39:21.970Z,6.10
2019-02-12T10:41:52.480Z,8.50
2019-02-12T10:44:24.227Z,6.50
2019-02-12T10:46:55.169Z,5.43
2019-02-12T10:49:26.986Z,6.70
2019-02-12T10:51:57.773Z,7.03
2019-02-12T10:54:28.461Z,17.83
2019-02-12T10:56:59.084Z,6.10
2019-02-12T10:59:30.244Z,9.23
2019-02-12T11:02:00.594Z,6.27
2019-02-12T11:04:32.037Z,8.53
2019-02-12T11:07:05.518Z,6.40
2019-02-12T11:09:36.654Z,7.30
2019-02-12T11:12:07.112Z,6.47
2019-02-12T11:14:37.748Z,11.80
2019-02-12T11:17:08.909Z,8.17
2019-02-12T11:19:39.823Z,6.10
2019-02-12T11:22:11.400Z,4.50
2019-02-12T11:24:42.158Z,5.43
2019-02-12T11:27:12.990Z,7.70
2019-02-12T11:29:43.416Z,7.30
2019-02-12T11:32:15.108Z,4.87
2019-02-12T11:34:46.487Z,5.67
2019-02-12T11:37:16.923Z,4.53
2019-02-12T11:39:47.845Z,5.47
2019-02-12T11:42:18.717Z,5.07
2019-02-12T11:44:49.209Z,4.97
2019-02-12T11:47:20.551Z,5.20
2019-02-12T11:49:51.100Z,3.93
2019-02-12T11:52:22.433Z,4.67
2019-02-12T11:54:52.879Z,3.70
2019-02-12T11:57:23.499Z,4.30
2019-02-12T11:59:53.991Z,4.30
2019-02-12T12:02:27.828Z,6.20
2019-02-12T12:04:58.218Z,12.00
2019-02-12T12:07:29.086Z,6.10
2019-02-12T12:10:00.177Z,6.13
2019-02-12T12:12:30.807Z,6.83
2019-02-12T12:15:01.481Z,4.00
2019-02-12T12:17:33.410Z,11.47
2019-02-12T12:20:03.934Z,5.80
2019-02-12T12:22:34.470Z,4.60
2019-02-12T12:25:05.498Z,4.77
2019-02-12T12:27:35.958Z,6.30
2019-02-12T12:30:08.478Z,4.20
2019-02-12T12:32:40.049Z,3.97
2019-02-12T12:35:11.823Z,3.83
2019-02-12T12:37:43.375Z,7.00
2019-02-12T12:40:14.305Z,4.43
2019-02-12T12:42:46.435Z,4.70
2019-02-12T12:45:17.118Z,4.57
2019-02-12T12:47:47.808Z,6.87
2019-02-12T12:50:21.922Z,6.00
2019-02-12T12:52:52.942Z,4.80
2019-02-12T12:55:25.323Z,7.73
2019-02-12T12:57:57.285Z,5.73
2019-02-12T13:00:28.513Z,5.17
2019-02-12T13:02:59.086Z,8.63
2019-02-12T13:05:29.749Z,5.40
2019-02-12T13:08:00.461Z,7.07
2019-02-12T13:10:30.978Z,6.67
2019-02-12T13:13:01.854Z,9.00
2019-02-12T13:15:32.506Z,6.20
2019-02-12T13:18:03.130Z,6.17
2019-02-12T13:20:34.149Z,11.13
2019-02-12T13:23:05.599Z,11.23
2019-02-12T13:25:36.133Z,20.60
2019-02-12T13:28:07.449Z,6.70
2019-02-12T13:30:38.949Z,10.93
2019-02-12T13:33:11.119Z,7.23
2019-02-12T13:35:42.886Z,7.07
2019-02-12T13:38:14.134Z,7.37
2019-02-12T13:40:44.905Z,7.40
2019-02-12T13:43:16.602Z,6.70
2019-02-12T13:45:49.865Z,7.40
2019-02-12T13:48:20.338Z,7.30
2019-02-12T13:50:51.042Z,7.63
2019-02-12T13:53:21.494Z,9.50
2019-02-12T13:55:51.897Z,5.80
2019-02-12T13:58:22.219Z,7.40
2019-02-12T14:00:53.171Z,7.77
2019-02-12T14:03:23.920Z,7.00
2019-02-12T14:05:54.354Z,12.47
2019-02-12T14:08:24.820Z,7.23
2019-02-12T14:10:55.152Z,6.03
2019-02-12T14:13:27.077Z,7.67
2019-02-12T14:15:57.702Z,7.03
2019-02-12T14:18:28.473Z,11.40
2019-02-12T14:20:59.554Z,5.87
2019-02-12T14:23:30.396Z,7.80
2019-02-12T14:26:02.100Z,6.10
2019-02-12T14:28:32.601Z,6.30
2019-02-12T14:31:03.709Z,6.27
2019-02-12T14:33:34.186Z,10.13
2019-02-12T14:36:04.653Z,7.63
2019-02-12T14:38:36.481Z,8.93
2019-02-12T14:41:06.903Z,11.60
2019-02-12T14:43:37.512Z,7.13
2019-02-12T14:46:08.075Z,9.83
2019-02-12T14:48:38.807Z,13.73
2019-02-12T14:51:09.190Z,8.47
2019-02-12T14:53:39.748Z,7.60
2019-02-12T14:56:11.559Z,10.53
2019-02-12T14:58:42.736Z,10.43
2019-02-12T15:01:13.497Z,7.87
2019-02-12T15:03:43.899Z,17.57
2019-02-12T15:06:15.955Z,7.63
2019-02-12T15:08:46.730Z,9.70
2019-02-12T15:11:17.713Z,5.73
2019-02-12T15:13:48.199Z,7.60
2019-02-12T15:16:19.228Z,9.43
2019-02-12T15:18:50.259Z,5.93
2019-02-12T15:21:21.223Z,5.43
2019-02-12T15:23:52.043Z,5.73
2019-02-12T15:26:24.177Z,8.93
2019-02-12T15:28:54.675Z,5.50
2019-02-12T15:31:25.100Z,9.50
2019-02-12T15:33:57.000Z,6.90
2019-02-12T15:36:27.605Z,8.40
2019-02-12T15:38:58.250Z,10.13
2019-02-12T15:41:29.171Z,5.57
2019-02-12T15:43:59.640Z,11.37
2019-02-12T15:46:30.240Z,11.57
2019-02-12T15:49:00.933Z,14.03
2019-02-12T15:51:31.578Z,9.57
2019-02-12T15:54:02.239Z,8.80
2019-02-12T15:56:33.306Z,6.37
2019-02-12T15:59:03.742Z,12.10
2019-02-12T16:01:34.746Z,9.50
2019-02-12T16:04:05.467Z,6.60
2019-02-12T16:06:36.863Z,9.80
2019-02-12T16:09:08.422Z,10.73
2019-02-12T16:11:40.009Z,10.50
2019-02-12T16:14:13.452Z,9.85
2019-02-12T16:16:44.713Z,7.57
2019-02-12T16:19:15.491Z,9.90
2019-02-12T16:21:46.143Z,7.07
2019-02-12T16:24:17.074Z,8.60
2019-02-12T16:26:47.579Z,13.90
2019-02-12T16:29:18.671Z,17.10
2019-02-12T16:31:49.273Z,13.23
2019-02-12T16:34:21.132Z,10.43
2019-02-12T16:36:51.916Z,10.72
2019-02-12T16:39:22.730Z,9.10
2019-02-12T16:41:54.781Z,10.00
2019-02-12T16:44:25.607Z,11.55
2019-02-12T16:46:57.035Z,9.10
2019-02-12T16:49:27.807Z,11.00
2019-02-12T16:52:00.083Z,11.43
2019-02-12T16:54:32.751Z,9.10
2019-02-12T16:57:03.865Z,16.20
2019-02-12T16:59:34.811Z,16.33
2019-02-12T17:02:07.010Z,15.63
2019-02-12T17:04:37.931Z,10.80
2019-02-12T17:07:12.003Z,11.97
2019-02-12T17:09:42.810Z,10.40
2019-02-12T17:12:14.139Z,10.10
2019-02-12T17:14:44.970Z,9.70
2019-02-12T17:17:15.747Z,9.73
2019-02-12T17:19:47.152Z,9.88
2019-02-12T17:22:21.343Z,10.43
2019-02-12T17:24:52.659Z,8.27
2019-02-12T17:27:23.913Z,9.27
2019-02-12T17:29:57.493Z,9.70
2019-02-12T17:32:29.292Z,8.17
2019-02-12T17:35:01.927Z,8.50
2019-02-12T17:37:32.975Z,6.28
2019-02-12T17:40:04.920Z,5.17
2019-02-12T17:42:37.971Z,4.50
2019-02-12T17:45:09.515Z,9.80
2019-02-12T17:47:40.434Z,9.45
2019-02-12T17:50:12.396Z,7.33
2019-02-12T17:52:43.545Z,7.42
2019-02-12T17:55:16.229Z,5.22
2019-02-12T17:57:46.944Z,5.30
2019-02-12T18:00:19.513Z,9.28
2019-02-12T18:02:52.743Z,7.92
2019-02-12T18:05:24.233Z,5.15
2019-02-12T18:07:55.096Z,7.53
2019-02-12T18:10:25.857Z,7.80
2019-02-12T18:12:56.167Z,9.33
2019-02-12T18:15:26.878Z,6.00
2019-02-12T18:17:58.134Z,11.03
2019-02-12T18:20:29.487Z,6.28
2019-02-12T18:23:01.772Z,5.30
2019-02-12T18:25:32.661Z,9.68
2019-02-12T18:28:04.108Z,9.38
2019-02-12T18:30:34.941Z,7.22
2019-02-12T18:33:06.670Z,7.20
2019-02-12T18:35:42.876Z,7.33
2019-02-12T18:38:13.290Z,6.83
2019-02-12T18:40:45.907Z,8.15
2019-02-12T18:43:18.051Z,9.50
2019-02-12T18:45:48.767Z,7.33
2019-02-12T18:48:20.347Z,7.22
2019-02-12T18:50:50.964Z,10.75
2019-02-12T18:53:22.650Z,9.30
2019-02-12T18:55:54.010Z,8.98
2019-02-12T18:58:30.368Z,7.87
2019-02-12T19:01:01.896Z,7.40
2019-02-12T19:03:39.946Z,9.25
2019-02-12T19:06:13.622Z,7.63
2019-02-12T19:08:45.769Z,5.77
2019-02-12T19:11:16.990Z,5.60
2019-02-12T19:13:47.562Z,6.30
2019-02-12T19:16:19.513Z,5.90
2019-02-12T19:18:51.879Z,7.10
2019-02-12T19:21:25.409Z,7.13
2019-02-12T19:23:55.816Z,12.40
2019-02-12T19:26:26.174Z,8.93
2019-02-12T19:28:57.102Z,14.20
2019-02-12T19:31:27.747Z,8.70
2019-02-12T19:33:58.500Z,5.80
2019-02-12T19:36:30.060Z,7.97
2019-02-12T19:39:01.005Z,5.90
2019-02-12T19:41:31.917Z,10.37
2019-02-12T19:44:03.525Z,14.13
2019-02-12T19:46:34.701Z,14.60
2019-02-12T19:49:05.541Z,15.67
2019-02-12T19:51:35.931Z,12.43
2019-02-12T19:54:06.607Z,12.37
2019-02-12T19:56:37.356Z,14.57
2019-02-12T19:59:08.878Z,10.60
2019-02-12T20:01:40.163Z,11.50
2019-02-12T20:04:10.896Z,10.27
2019-02-12T20:06:41.461Z,13.63
2019-02-12T20:09:23.200Z,9.47
2019-02-12T20:11:55.501Z,6.53
2019-02-12T20:14:26.152Z,7.83
2019-02-12T20:16:56.783Z,9.73
2019-02-12T20:19:28.541Z,7.33
2019-02-12T20:21:58.801Z,7.30
2019-02-12T20:24:29.663Z,11.07
2019-02-12T20:27:06.472Z,13.32
2019-02-12T20:29:32.094Z,18.00
2019-02-12T20:32:02.949Z,10.57
2019-02-12T20:34:38.211Z,13.63
2019-02-12T20:37:08.988Z,12.80
2019-02-12T20:39:41.017Z,23.45
2019-02-12T20:42:12.496Z,12.70
2019-02-12T20:44:43.616Z,12.60
2019-02-12T20:47:14.646Z,11.13
2019-02-12T20:49:45.320Z,12.33
2019-02-12T20:52:15.934Z,13.30
2019-02-12T20:54:47.248Z,17.73
2019-02-12T20:57:17.797Z,12.60
2019-02-12T20:59:48.555Z,18.30
2019-02-12T21:02:20.195Z,34.37
2019-02-12T21:04:50.754Z,35.65
2019-02-12T21:07:21.607Z,35.60
2019-02-12T21:09:52.347Z,24.10
2019-02-12T21:12:22.740Z,14.43
2019-02-12T21:14:53.235Z,13.28
2019-02-12T21:17:24.530Z,15.72
2019-02-12T21:19:56.529Z,18.25
2019-02-12T21:22:28.962Z,13.17
2019-02-12T21:25:00.322Z,11.70
2019-02-12T21:27:30.955Z,14.47
2019-02-12T21:30:01.825Z,13.03
2019-02-12T21:32:33.009Z,11.50
2019-02-12T21:37:36.147Z,15.40
2019-02-12T21:40:09.275Z,17.43
2019-02-12T21:42:40.415Z,18.23
2019-02-12T21:45:12.794Z,14.40
2019-02-12T21:47:43.724Z,20.10
2019-02-12T21:50:19.364Z,18.27
2019-02-12T21:52:49.970Z,16.17
2019-02-12T21:55:20.869Z,18.37
2019-02-12T21:57:51.446Z,20.40
2019-02-12T22:00:22.064Z,18.67
2019-02-12T22:02:54.862Z,20.53
2019-02-12T22:05:26.128Z,18.63
2019-02-12T22:07:56.690Z,18.40
2019-02-12T22:10:27.014Z,18.00
2019-02-12T22:12:57.438Z,22.03
2019-02-12T22:15:27.943Z,29.30
2019-02-12T22:17:58.605Z,20.50
2019-02-12T22:20:33.596Z,28.37
2019-02-12T22:23:05.539Z,29.07
2019-02-12T22:28:06.284Z,20.30
2019-02-12T22:30:38.319Z,17.23
2019-02-12T22:33:09.097Z,33.20
2019-02-12T22:35:39.816Z,18.47
2019-02-12T22:38:10.784Z,12.53
2019-02-12T22:40:41.611Z,10.97
2019-02-12T22:43:12.230Z,9.40
2019-02-12T22:45:44.629Z,9.47
2019-02-12T22:48:15.788Z,9.70
2019-02-12T22:50:46.215Z,8.00
2019-02-12T22:53:18.151Z,4.83
2019-02-12T22:55:48.883Z,5.83
2019-02-12T22:58:19.391Z,5.60
2019-02-12T23:01:06.063Z,7.55
2019-02-12T23:03:37.624Z,8.73
2019-02-12T23:06:08.155Z,6.15
2019-02-12T23:08:38.887Z,5.75
2019-02-12T23:11:09.312Z,6.55
2019-02-12T23:13:39.848Z,10.95
2019-02-12T23:16:10.539Z,14.50
2019-02-12T23:18:41.075Z,12.15
2019-02-12T23:21:11.445Z,10.20
2019-02-12T23:23:43.344Z,9.83
2019-02-12T23:26:14.614Z,7.92
2019-02-12T23:28:45.099Z,8.78
2019-02-12T23:31:16.498Z,5.33
2019-02-12T23:33:46.862Z,4.65
2019-02-12T23:36:17.283Z,10.13
2019-02-12T23:38:49.414Z,7.03
2019-02-12T23:41:20.313Z,7.60
2019-02-12T23:43:50.704Z,9.10
2019-02-12T23:46:20.999Z,8.40
2019-02-12T23:48:51.412Z,11.43
2019-02-12T23:51:21.464Z,9.98
2019-02-12T23:53:52.069Z,10.90
2019-02-12T23:56:22.658Z,6.92
2019-02-12T23:58:53.484Z,5.40
